GB-0418 weather

Wishangar Farm private Airstrip
Frensham, England, United Kingdom

Public forecast

Using degrees Celsius for public forecast. Weather courtesy of forecast.io.

METAR (pilot weather report)

Closest report is RAF Odiham, 7.1 nm (13.2 km) NW. Retrieved 2018/12/15 11:50 UTC (1 hour ago):

EGVO 151150Z AUTO 13017KT 6000 -RA FEW012/// SCT019/// BKN050/// 02/01 Q1010

TAF (pilot weather forecast)

Forecast is more than 12 hours old.

Closest forecast is RAF Odiham, 7.1 nm (13.2 km) NW. Retrieved 2018/12/14 09:39 UTC (1 day ago):

TAF EGVO 140735Z 1409/1421 08008KT 9999 FEW030